Time;durP1;ratioP1;P1;durP2;ratioP2;P2;SDS_P1;SDS_P2;PMS_P1;PMS_P2;Temp;Humidity;BMP_temperature;BMP_pressure;BME280_temperature;BME280_humidity;BME280_pressure;Samples;Min_cycle;Max_cycle;Signal;HPM_P1;HPM_P2
2022/05/10 00:02:50;;;;;;;8.60;5.25;;;;;;;15.06;68.71;100313.56;12199213;19;20090;-81
2022/05/10 00:06:53;;;;;;;8.52;4.70;;;;;;;14.98;68.96;100305.72;12191559;19;20022;-81
2022/05/10 00:10:56;;;;;;;5.95;4.30;;;;;;;14.85;70.08;100301.47;12182230;19;20009;-81
2022/05/10 00:14:58;;;;;;;9.32;4.82;;;;;;;14.79;70.71;100308.09;12201901;19;20018;-81
2022/05/10 00:19:00;;;;;;;5.78;4.40;;;;;;;14.77;70.49;100302.78;12184411;19;20535;-81
2022/05/10 00:23:01;;;;;;;7.82;4.78;;;;;;;14.79;70.08;100299.78;12198198;19;20006;-81
2022/05/10 00:27:03;;;;;;;7.22;4.25;;;;;;;14.81;69.86;100294.78;12206461;19;20014;-81
2022/05/10 00:31:06;;;;;;;8.75;4.55;;;;;;;14.81;70.30;100284.53;12180056;19;20166;-82
2022/05/10 00:35:16;;;;;;;9.20;4.80;;;;;;;14.80;70.23;100287.56;12198102;19;20522;-81
2022/05/10 00:39:17;;;;;;;6.35;4.75;;;;;;;14.78;69.90;100289.75;12204567;19;20078;-82
2022/05/10 00:43:27;;;;;;;6.03;4.63;;;;;;;14.78;70.60;100289.75;12182690;19;20006;-82
2022/05/10 00:47:51;;;;;;;6.18;4.72;;;;;;;14.75;71.20;100284.75;12221223;19;20029;-82
2022/05/10 00:51:59;;;;;;;6.88;4.68;;;;;;;14.71;70.65;100284.44;12214403;19;20471;-82
2022/05/10 00:56:14;;;;;;;10.18;4.50;;;;;;;14.70;71.36;100281.94;12179447;19;20349;-82
2022/05/10 01:00:20;;;;;;;8.57;4.38;;;;;;;14.69;70.95;100283.03;12201445;19;20354;-81
2022/05/10 01:04:32;;;;;;;5.72;4.00;;;;;;;14.68;70.89;100284.16;12171571;19;20011;-82
2022/05/10 01:08:48;;;;;;;5.78;4.57;;;;;;;14.67;71.40;100271.38;12199632;19;20007;-82
2022/05/10 01:12:57;;;;;;;8.55;4.45;;;;;;;14.66;71.35;100269.69;12195891;19;20033;-81
2022/05/10 01:16:59;;;;;;;5.35;4.10;;;;;;;14.64;71.32;100272.75;12182058;19;20030;-81
2022/05/10 01:21:10;;;;;;;9.40;4.75;;;;;;;14.66;71.13;100266.94;12208581;19;20094;-81
2022/05/10 01:26:02;;;;;;;6.70;4.80;;;;;;;14.65;72.10;100270.81;12177730;19;20010;-81
2022/05/10 01:30:09;;;;;;;5.77;4.50;;;;;;;14.59;72.26;100275.47;12204314;19;20010;-81
2022/05/10 01:34:19;;;;;;;8.32;4.65;;;;;;;14.54;72.53;100270.72;12182447;19;20006;-81
2022/05/10 01:38:27;;;;;;;8.52;5.28;;;;;;;14.52;73.29;100264.63;12202072;19;20014;-81
2022/05/10 01:42:40;;;;;;;6.85;4.90;;;;;;;14.50;73.31;100252.91;12198556;19;20468;-81
2022/05/10 01:46:45;;;;;;;6.18;4.60;;;;;;;14.46;73.10;100243.47;12183890;19;20010;-81
2022/05/10 01:50:53;;;;;;;6.13;4.50;;;;;;;14.46;73.04;100248.19;12191102;19;20014;-81
2022/05/10 01:55:02;;;;;;;6.93;4.70;;;;;;;14.44;73.05;100242.06;12176064;19;20014;-81
2022/05/10 01:59:04;;;;;;;8.27;4.97;;;;;;;14.42;73.91;100242.31;12191882;19;20006;-82
2022/05/10 02:03:23;;;;;;;8.13;5.60;;;;;;;14.39;74.55;100237.28;12198522;19;20033;-81
2022/05/10 02:07:26;;;;;;;7.03;4.68;;;;;;;14.35;75.03;100236.97;12175374;19;20037;-82
2022/05/10 02:11:28;;;;;;;10.07;4.72;;;;;;;14.34;75.51;100232.56;12201538;19;20459;-82
2022/05/10 02:15:38;;;;;;;7.47;5.30;;;;;;;14.33;75.62;100232.81;12192778;19;19999;-82
2022/05/10 02:19:49;;;;;;;7.28;5.63;;;;;;;14.32;75.71;100228.38;12176240;19;20050;-81
2022/05/10 02:24:03;;;;;;;7.47;5.22;;;;;;;14.30;76.44;100222.25;12199312;19;20010;-81
2022/05/10 02:28:12;;;;;;;7.93;4.78;;;;;;;14.28;76.06;100218.91;12174846;19;20115;-82
2022/05/10 02:36:44;;;;;;;9.73;5.32;;;;;;;14.25;76.01;100225.81;12202740;19;20013;-81
2022/05/10 02:40:47;;;;;;;8.82;5.15;;;;;;;14.24;76.52;100220.53;12181669;19;20373;-81
2022/05/10 02:44:50;;;;;;;;;;;;;;;14.21;76.55;100219.13;12202645;19;20023;-81
2022/05/10 02:48:53;;;;;;;7.60;5.10;;;;;;;14.21;76.69;100218.28;12201101;19;19942;-81
2022/05/10 02:52:55;;;;;;;8.90;5.55;;;;;;;14.18;77.24;100211.34;12176497;19;20014;-81
2022/05/10 02:56:59;;;;;;;9.75;5.53;;;;;;;14.18;77.65;100213.28;12200800;19;20058;-82
2022/05/10 03:01:18;;;;;;;7.32;5.82;;;;;;;14.17;78.33;100217.16;12182236;19;20109;-81
2022/05/10 03:05:20;;;;;;;6.43;5.03;;;;;;;14.13;78.44;100208.53;12209328;19;20014;-81
2022/05/10 03:09:21;;;;;;;7.35;5.82;;;;;;;14.04;79.37;100205.41;12214445;19;20013;-81
2022/05/10 03:13:23;;;;;;;7.40;5.15;;;;;;;13.90;79.90;100206.94;12190389;19;20718;-81
2022/05/10 03:17:26;;;;;;;8.95;5.93;;;;;;;13.76;80.11;100211.22;12200325;19;20089;-81
2022/05/10 03:21:30;;;;;;;15.38;6.15;;;;;;;13.63;80.94;100212.47;12206013;19;20106;-81
2022/05/10 03:25:31;;;;;;;7.25;6.10;;;;;;;13.51;81.13;100204.31;12182788;19;20003;-81
2022/05/10 03:29:34;;;;;;;12.63;5.97;;;;;;;13.39;81.58;100203.63;12204030;19;20006;-82
2022/05/10 03:33:35;;;;;;;7.43;5.70;;;;;;;13.23;82.16;100206.16;12197777;19;19999;-82
2022/05/10 03:37:37;;;;;;;9.95;6.30;;;;;;;13.16;82.90;100207.44;12186139;19;20345;-81
2022/05/10 03:41:39;;;;;;;8.45;6.00;;;;;;;13.11;83.31;100202.69;12198232;19;20022;-81
2022/05/10 03:45:40;;;;;;;7.93;6.25;;;;;;;13.09;83.22;100207.66;12207347;19;20025;-80
2022/05/10 03:49:42;;;;;;;8.40;6.22;;;;;;;13.02;83.61;100212.53;12182331;19;20010;-81
2022/05/10 03:53:47;;;;;;;10.63;7.00;;;;;;;12.94;83.92;100218.53;12193164;19;20015;-81
2022/05/10 03:57:50;;;;;;;7.43;6.38;;;;;;;12.83;84.25;100214.75;12205492;19;20030;-81
2022/05/10 04:01:52;;;;;;;7.80;6.30;;;;;;;12.75;85.50;100229.84;12185899;19;20003;-81
2022/05/10 04:05:54;;;;;;;14.68;7.57;;;;;;;12.72;85.97;100213.75;12203963;19;20002;-81
2022/05/10 04:09:55;;;;;;;8.55;6.38;;;;;;;12.72;86.41;100224.81;12170940;19;20010;-81
2022/05/10 04:13:57;;;;;;;9.00;7.20;;;;;;;12.69;86.87;100219.81;12201083;19;20743;-82
2022/05/10 04:17:58;;;;;;;8.82;6.80;;;;;;;12.70;87.11;100226.16;12203906;19;20075;-82
2022/05/10 04:22:00;;;;;;;8.85;6.93;;;;;;;12.70;87.21;100227.03;12182435;19;20007;-81
2022/05/10 04:26:07;;;;;;;9.70;7.47;;;;;;;12.70;87.65;100221.50;12208133;19;20014;-81
2022/05/10 04:30:09;;;;;;;12.90;7.97;;;;;;;12.73;87.54;100223.75;12192978;19;20074;-81
2022/05/10 04:34:11;;;;;;;10.05;7.63;;;;;;;12.77;87.38;100224.91;12175337;19;20014;-81
2022/05/10 04:38:13;;;;;;;11.80;6.78;;;;;;;12.82;87.30;100229.69;12201817;19;20015;-80
2022/05/10 04:42:16;;;;;;;8.75;6.95;;;;;;;12.89;87.62;100240.56;12201334;19;20007;-80
2022/05/10 04:46:17;;;;;;;;;;;;;;;12.93;88.39;100239.78;12224850;19;20005;-81
2022/05/10 04:50:19;;;;;;;8.23;6.85;;;;;;;13.03;87.61;100236.34;12248877;19;19918;-82
2022/05/10 04:54:20;;;;;;;7.95;6.82;;;;;;;13.10;87.56;100236.97;12254721;19;20010;-82
2022/05/10 04:58:22;;;;;;;9.10;6.72;;;;;;;13.18;87.81;100228.25;12227530;19;20018;-81
2022/05/10 05:02:24;;;;;;;7.78;6.32;;;;;;;13.29;87.76;100232.00;12256161;19;20006;-82
2022/05/10 05:06:26;;;;;;;8.93;6.93;;;;;;;13.42;87.63;100228.03;12247326;19;20002;-80
2022/05/10 05:10:28;;;;;;;9.63;6.78;;;;;;;13.55;87.80;100232.31;12232235;19;20005;-80
2022/05/10 05:14:31;;;;;;;10.47;6.70;;;;;;;13.66;87.45;100234.09;12249602;19;20011;-80
2022/05/10 05:18:33;;;;;;;8.93;6.88;;;;;;;13.76;88.17;100238.91;12254139;19;20029;-84
2022/05/10 05:22:35;;;;;;;8.95;6.32;;;;;;;13.86;88.51;100241.78;12213752;19;20014;-83
2022/05/10 05:26:36;;;;;;;8.77;6.93;;;;;;;13.96;88.58;100235.53;12204335;19;20052;-83
2022/05/10 05:30:40;;;;;;;9.00;7.20;;;;;;;14.02;88.89;100238.06;12211194;19;20385;-82
2022/05/10 05:34:42;;;;;;;7.88;6.60;;;;;;;14.09;89.01;100244.22;12183316;19;20498;-82
2022/05/10 05:38:46;;;;;;;8.60;6.63;;;;;;;14.18;89.29;100239.03;12210990;19;20018;-84
2022/05/10 05:42:48;;;;;;;7.20;6.13;;;;;;;14.27;89.10;100239.41;12209235;19;20010;-81
2022/05/10 05:46:50;;;;;;;8.90;6.78;;;;;;;14.37;88.73;100242.28;12191767;19;20397;-81
2022/05/10 05:50:52;;;;;;;11.32;6.43;;;;;;;14.48;88.93;100232.91;12188592;19;20006;-81
2022/05/10 05:54:55;;;;;;;9.10;6.30;;;;;;;14.60;89.19;100238.31;12186678;19;20535;-81
2022/05/10 05:58:56;;;;;;;9.63;6.70;;;;;;;14.69;89.32;100239.47;12212863;19;20074;-82
2022/05/10 06:02:58;;;;;;;7.85;6.40;;;;;;;14.83;89.31;100239.88;12209605;19;20011;-81
2022/05/10 06:06:59;;;;;;;7.63;6.22;;;;;;;14.98;89.14;100239.94;12181461;19;20495;-81
2022/05/10 06:11:01;;;;;;;9.45;6.82;;;;;;;15.15;89.61;100242.56;12206149;19;20014;-81
2022/05/10 06:15:08;;;;;;;9.65;6.78;;;;;;;15.35;89.73;100244.59;12210974;19;20011;-81
2022/05/10 06:19:12;;;;;;;9.20;5.88;;;;;;;15.56;89.41;100233.56;12184366;19;20019;-81
2022/05/10 06:23:15;;;;;;;10.27;6.95;;;;;;;15.80;87.89;100233.94;12204535;19;20006;-81
2022/05/10 06:27:17;;;;;;;8.33;6.57;;;;;;;16.15;84.83;100238.72;12208537;19;20070;-81
2022/05/10 06:31:19;;;;;;;7.38;6.38;;;;;;;16.56;82.98;100239.56;12181122;19;20271;-81
2022/05/10 06:35:22;;;;;;;9.57;6.50;;;;;;;16.90;81.29;100238.19;12205340;19;20017;-79
2022/05/10 06:39:23;;;;;;;8.98;5.95;;;;;;;17.14;77.97;100236.44;12224255;19;20041;-81
2022/05/10 06:43:25;;;;;;;9.88;6.32;;;;;;;17.45;76.35;100241.88;12203178;19;20016;-82
2022/05/10 06:47:27;;;;;;;8.63;5.90;;;;;;;17.66;73.76;100237.06;12218692;19;20412;-79
2022/05/10 06:51:29;;;;;;;7.05;5.07;;;;;;;17.96;72.78;100234.09;12217692;19;20030;-79
2022/05/10 06:55:33;;;;;;;10.90;6.03;;;;;;;18.27;71.75;100228.34;12197691;19;20023;-79
2022/05/10 06:59:34;;;;;;;8.38;5.57;;;;;;;18.56;71.41;100228.38;12217372;19;20007;-80
2022/05/10 07:03:37;;;;;;;10.52;5.30;;;;;;;18.72;69.16;100231.84;12213282;19;20029;-80
2022/05/10 07:07:39;;;;;;;8.23;6.05;;;;;;;18.90;68.76;100221.94;12197431;19;20019;-79
2022/05/10 07:11:40;;;;;;;9.88;5.90;;;;;;;19.11;68.84;100233.69;12216067;19;20072;-79
2022/05/10 07:15:44;;;;;;;7.97;6.05;;;;;;;19.28;68.10;100231.28;12214640;19;20024;-84
2022/05/10 07:19:46;;;;;;;11.50;5.95;;;;;;;19.36;66.83;100224.19;12182691;19;20010;-81
2022/05/10 07:23:47;;;;;;;8.47;6.07;;;;;;;19.54;66.37;100228.13;12216712;19;20688;-81
2022/05/10 07:27:49;;;;;;;11.82;6.53;;;;;;;19.65;64.22;100237.28;12211943;19;20074;-81
2022/05/10 07:31:53;;;;;;;9.13;6.50;;;;;;;19.75;63.88;100237.13;12194387;19;20035;-80
2022/05/10 07:40:15;;;;;;;7.45;6.22;;;;;;;19.59;62.49;100239.25;12193367;19;20031;-79
2022/05/10 07:44:17;;;;;;;7.35;5.82;;;;;;;19.46;60.80;100229.66;12209869;19;20062;-80
2022/05/10 07:48:19;;;;;;;8.83;6.97;;;;;;;19.54;60.20;100233.72;12216592;19;20018;-80
2022/05/10 07:52:20;;;;;;;12.55;8.68;;;;;;;19.61;59.46;100239.81;12183766;19;20074;-80
2022/05/10 07:56:24;;;;;;;14.75;8.32;;;;;;;19.70;60.41;100238.03;12218537;19;20048;-80
2022/05/10 08:00:27;;;;;;;21.25;8.02;;;;;;;20.03;61.24;100236.16;12214555;19;20021;-80
2022/05/10 08:04:29;;;;;;;16.40;9.63;;;;;;;20.24;60.82;100238.66;12181867;19;20010;-83
2022/05/10 08:08:36;;;;;;;13.10;9.13;;;;;;;20.46;60.30;100232.41;12209228;19;20800;-79
2022/05/10 08:12:38;;;;;;;14.98;9.07;;;;;;;20.63;60.74;100240.28;12196858;19;20539;-80
2022/05/10 08:16:41;;;;;;;12.40;10.07;;;;;;;20.90;59.30;100228.31;12179408;19;20022;-80
2022/05/10 08:20:49;;;;;;;11.40;9.07;;;;;;;21.01;58.89;100223.34;12208595;19;20007;-81
2022/05/10 08:24:51;;;;;;;11.57;8.68;;;;;;;21.34;57.92;100219.31;12204690;19;20019;-82
2022/05/10 08:28:52;;;;;;;11.40;8.73;;;;;;;21.60;57.73;100222.44;12186102;19;20082;-81
2022/05/10 08:33:00;;;;;;;10.88;8.30;;;;;;;21.92;57.77;100222.56;12203381;19;20087;-82
2022/05/10 08:37:20;;;;;;;11.55;8.38;;;;;;;22.13;56.66;100220.97;12185365;19;20010;-80
2022/05/10 08:41:27;;;;;;;13.43;9.63;;;;;;;22.36;54.99;100212.56;12202278;19;20038;-80
2022/05/10 08:45:33;;;;;;;14.27;9.38;;;;;;;22.59;54.31;100217.03;12208306;19;20030;-80
2022/05/10 08:49:48;;;;;;;17.10;9.45;;;;;;;22.87;53.95;100206.44;12182952;19;20650;-82
2022/05/10 08:53:50;;;;;;;12.95;8.93;;;;;;;23.00;53.68;100206.72;12196266;19;20034;-81
2022/05/10 08:58:02;;;;;;;13.02;9.98;;;;;;;23.31;52.40;100201.88;12206911;19;20033;-81
2022/05/10 09:02:13;;;;;;;14.02;9.52;;;;;;;23.69;51.78;100194.84;12182890;19;20033;-82
2022/05/10 09:06:23;;;;;;;13.23;8.35;;;;;;;24.01;52.09;100187.97;12206655;19;20082;-82
2022/05/10 09:10:40;;;;;;;10.65;9.13;;;;;;;24.25;50.13;100195.91;12182736;19;20014;-81
2022/05/10 09:14:51;;;;;;;13.02;8.00;;;;;;;24.51;50.37;100179.84;12204812;19;20011;-82
2022/05/10 09:18:53;;;;;;;12.45;8.95;;;;;;;24.77;48.77;100187.38;12204780;19;20027;-81
2022/05/10 09:23:01;;;;;;;15.48;7.78;;;;;;;25.04;48.44;100180.47;12183167;19;20436;-82
2022/05/10 09:27:05;;;;;;;12.30;8.18;;;;;;;25.27;47.84;100178.25;12213667;19;20003;-82
2022/05/10 09:36:10;;;;;;;13.82;6.82;;;;;;;25.30;46.50;100166.28;12209308;19;20034;-81
2022/05/10 09:40:22;;;;;;;10.05;6.50;;;;;;;25.30;45.01;100171.94;12180214;19;20425;-83
2022/05/10 09:44:27;;;;;;;11.20;6.63;;;;;;;25.16;46.06;100174.16;12202474;19;20015;-81
2022/05/10 09:48:29;;;;;;;9.65;7.80;;;;;;;25.00;46.27;100169.06;12206363;19;20536;-80
2022/05/10 09:52:33;;;;;;;13.48;7.28;;;;;;;25.06;46.93;100161.25;12181325;19;20002;-80
2022/05/10 09:56:39;;;;;;;;;;;;;;;25.21;47.53;100163.53;12205233;19;20007;-78
2022/05/10 10:00:44;;;;;;;10.32;7.80;;;;;;;25.53;45.46;100164.00;12203720;19;20368;-79
2022/05/10 10:04:48;;;;;;;9.45;7.28;;;;;;;25.89;44.78;100154.16;12176473;19;20011;-78
2022/05/10 10:08:51;;;;;;;13.77;8.93;;;;;;;26.09;44.69;100149.66;12204219;19;20551;-80
2022/05/10 10:12:54;;;;;;;11.75;7.13;;;;;;;26.53;44.14;100141.59;12208502;19;20015;-80
2022/05/10 10:16:56;;;;;;;;;;;;;;;26.63;43.29;100152.47;12223160;19;20708;-80
2022/05/10 10:20:59;;;;;;;;;;;;;;;26.56;43.34;100155.03;12217349;19;20026;-80
2022/05/10 10:25:23;;;;;;;8.75;7.10;;;;;;;26.76;43.57;100147.66;12190204;19;20292;-80
2022/05/10 10:29:46;;;;;;;9.35;7.50;;;;;;;26.98;41.85;100144.41;12208980;19;20007;-79
2022/05/10 10:33:58;;;;;;;9.68;7.72;;;;;;;27.07;42.06;100144.28;12215603;19;20082;-80
2022/05/10 10:38:11;;;;;;;;;;;;;;;27.28;42.26;100127.22;12195928;19;20082;-79
2022/05/10 10:42:35;;;;;;;10.15;7.65;;;;;;;27.56;41.88;100124.47;12215539;19;19910;-80
2022/05/10 10:46:59;;;;;;;10.52;7.15;;;;;;;27.84;40.58;100115.22;12185789;19;20009;-80
2022/05/10 10:51:00;;;;;;;13.55;6.82;;;;;;;27.91;41.01;100112.59;12217620;19;20022;-79
2022/05/10 10:55:06;;;;;;;8.25;6.55;;;;;;;27.93;39.52;100111.06;12190964;19;20014;-78
2022/05/10 10:59:28;;;;;;;12.32;6.55;;;;;;;28.15;39.94;100101.16;12219941;19;20029;-84
2022/05/10 11:03:41;;;;;;;13.13;6.78;;;;;;;28.57;39.86;100091.38;12211113;19;20395;-81
2022/05/10 11:08:11;;;;;;;14.05;7.05;;;;;;;28.55;38.85;100088.09;12194475;19;20029;-78
2022/05/10 11:12:22;;;;;;;10.55;6.32;;;;;;;28.73;38.81;100082.88;12215286;19;20094;-79
2022/05/10 11:16:54;;;;;;;7.97;6.57;;;;;;;28.90;38.67;100073.19;12198454;19;20014;-78
2022/05/10 11:21:11;;;;;;;;;;;;;;;28.65;38.32;100069.72;12215855;19;20018;-81
2022/05/10 11:25:43;;;;;;;15.00;7.18;;;;;;;28.78;38.38;100063.59;12190621;19;20405;-82
2022/05/10 11:30:06;;;;;;;7.97;6.03;;;;;;;29.06;36.06;100059.81;12216488;19;20026;-81
2022/05/10 11:34:42;;;;;;;8.30;6.03;;;;;;;29.36;36.39;100056.47;12187265;19;20014;-82
2022/05/10 11:39:07;;;;;;;9.45;5.72;;;;;;;29.70;35.24;100049.13;12212497;19;20033;-81
2022/05/10 11:43:40;;;;;;;10.00;6.00;;;;;;;29.95;34.31;100049.63;12193523;19;20086;-83
2022/05/10 11:47:56;;;;;;;16.58;6.43;;;;;;;30.02;33.98;100048.97;12217394;19;20690;-78
2022/05/10 11:52:32;;;;;;;10.07;6.07;;;;;;;30.41;33.45;100039.19;12190716;19;20448;-79
2022/05/10 11:56:38;;;;;;;6.57;5.32;;;;;;;30.83;31.73;100043.19;12198602;19;20006;-78
2022/05/10 12:00:43;;;;;;;11.02;5.88;;;;;;;30.75;31.62;100035.69;12214141;19;20074;-81
2022/05/10 12:04:46;;;;;;;6.30;5.70;;;;;;;30.90;31.41;100009.13;12181054;19;20014;-80
2022/05/10 12:08:56;;;;;;;10.50;5.82;;;;;;;31.22;31.20;100021.00;12217931;19;20007;-78
2022/05/10 12:12:59;;;;;;;10.10;5.45;;;;;;;31.50;30.35;100014.94;12193005;19;20073;-79
2022/05/10 12:21:39;;;;;;;8.75;6.05;;;;;;;31.24;30.04;100007.22;12214077;19;20078;-82
2022/05/10 12:26:00;;;;;;;8.82;6.20;;;;;;;31.21;30.52;99998.63;12185879;19;20018;-84
2022/05/10 12:30:07;;;;;;;8.00;6.53;;;;;;;31.14;30.73;100001.38;12206486;19;20010;-80
2022/05/10 12:34:12;;;;;;;7.90;7.00;;;;;;;31.00;31.84;99993.47;12185412;19;20014;-78
2022/05/10 12:38:43;;;;;;;8.10;6.40;;;;;;;30.71;31.67;99992.97;12210550;19;20086;-77
2022/05/10 12:42:57;;;;;;;12.73;6.00;;;;;;;30.10;32.43;99985.38;12213188;19;20492;-78
2022/05/10 12:47:18;;;;;;;8.93;6.22;;;;;;;30.10;32.21;99979.69;12182404;19;20507;-81
2022/05/10 12:51:38;;;;;;;7.30;6.47;;;;;;;30.05;32.05;99980.03;12210122;19;20041;-81
2022/05/10 12:55:42;;;;;;;7.97;6.88;;;;;;;30.06;31.63;99970.31;12176914;19;20013;-81
2022/05/10 13:00:01;;;;;;;6.72;5.80;;;;;;;30.16;32.47;99963.97;12211816;19;20006;-82
2022/05/10 13:04:14;;;;;;;8.80;6.72;;;;;;;30.25;33.48;99964.56;12191001;19;20672;-83
2022/05/10 13:08:27;;;;;;;7.47;6.40;;;;;;;30.92;32.47;99966.09;12204588;19;20045;-83
2022/05/10 13:12:49;;;;;;;7.60;5.93;;;;;;;31.93;31.54;99960.50;12203904;19;20468;-83
2022/05/10 13:16:53;;;;;;;9.55;7.20;;;;;;;32.74;29.46;99944.53;12184556;19;20086;-84
2022/05/10 13:20:59;;;;;;;8.77;7.50;;;;;;;33.54;29.12;99953.16;12200843;19;20373;-82
2022/05/10 13:25:04;;;;;;;10.00;7.30;;;;;;;33.13;29.92;99934.19;12182312;19;20574;-83
2022/05/10 13:29:09;;;;;;;9.20;6.88;;;;;;;32.43;29.68;99927.56;12208519;19;20034;-82
2022/05/10 13:33:26;;;;;;;9.27;7.35;;;;;;;31.83;30.68;99929.81;12204180;19;20056;-83
2022/05/10 13:37:31;;;;;;;8.10;7.25;;;;;;;32.34;30.04;99921.38;12188375;19;20073;-82
2022/05/10 13:41:47;;;;;;;9.98;7.57;;;;;;;32.34;29.98;99920.56;12207314;19;20014;-83
2022/05/10 13:45:59;;;;;;;10.40;6.90;;;;;;;32.45;29.91;99919.47;12191076;19;20017;-83
2022/05/10 13:50:28;;;;;;;8.13;7.28;;;;;;;32.68;29.56;99912.69;12210317;19;20003;-82
2022/05/10 13:54:34;;;;;;;9.00;7.88;;;;;;;32.57;29.62;99906.94;12213587;19;20743;-83
2022/05/10 13:58:46;;;;;;;8.25;7.45;;;;;;;32.03;30.09;99899.94;12178266;19;20003;-82
2022/05/10 14:02:59;;;;;;;9.02;7.32;;;;;;;31.36;30.47;99900.03;12209810;19;20011;-82
2022/05/10 14:07:06;;;;;;;;;;;;;;;30.47;31.33;99897.53;12179428;19;20027;-82
2022/05/10 14:11:15;;;;;;;8.90;7.07;;;;;;;30.42;31.73;99895.81;12206335;19;19911;-82
2022/05/10 14:15:27;;;;;;;11.57;7.18;;;;;;;30.43;31.80;99880.44;12201254;19;20006;-81
2022/05/10 14:19:35;;;;;;;8.45;6.88;;;;;;;30.17;32.62;99880.38;12184329;19;20631;-81
2022/05/10 14:23:36;;;;;;;10.07;6.18;;;;;;;29.77;32.62;99875.22;12209856;19;20536;-82
2022/05/10 14:28:25;;;;;;;;;;;;;;;;;;;;;
2022/05/10 14:32:34;;;;;;;6.63;5.55;;;;;;;28.95;33.81;99861.00;12103739;19;2004381;-82
2022/05/10 14:36:39;;;;;;;7.80;6.13;;;;;;;28.61;34.39;99857.00;12204470;19;20014;-82
2022/05/10 14:40:42;;;;;;;6.53;5.82;;;;;;;28.20;35.47;99855.59;12182807;19;20078;-81
2022/05/10 14:44:45;;;;;;;5.30;4.80;;;;;;;27.94;34.67;99843.66;12202999;19;20028;-82
2022/05/10 14:48:54;;;;;;;7.65;5.30;;;;;;;27.85;35.14;99842.19;12198259;19;20027;-81
2022/05/10 14:53:20;;;;;;;6.72;5.68;;;;;;;27.82;35.19;99838.09;12181642;19;20018;-80
2022/05/10 14:57:42;;;;;;;7.18;4.57;;;;;;;27.76;34.48;99831.03;12201339;19;20118;-82
2022/05/10 15:01:44;;;;;;;5.97;4.22;;;;;;;27.75;34.88;99837.03;12192711;19;20011;-81
2022/05/10 15:05:56;;;;;;;7.38;4.43;;;;;;;27.80;35.08;99828.31;12203453;19;20467;-81
2022/05/10 15:10:27;;;;;;;7.80;4.68;;;;;;;27.62;34.88;99822.97;12179927;19;20010;-81
2022/05/10 15:14:32;;;;;;;6.97;4.32;;;;;;;27.59;34.38;99828.56;12209317;19;20023;-80
2022/05/10 15:23:02;;;;;;;5.53;4.10;;;;;;;27.46;34.13;99811.66;12188921;19;20508;-81
2022/05/10 15:27:07;;;;;;;6.13;4.30;;;;;;;27.50;33.56;99808.91;12206247;19;20014;-81
2022/05/10 15:31:09;;;;;;;4.97;4.40;;;;;;;27.61;33.79;99806.38;12184337;19;20081;-81
2022/05/10 15:35:12;;;;;;;7.82;4.32;;;;;;;27.58;33.14;99805.09;12210768;19;20010;-80
2022/05/10 15:39:14;;;;;;;6.18;4.30;;;;;;;27.69;33.31;99791.19;12203989;19;20002;-80
2022/05/10 15:43:16;;;;;;;11.93;4.18;;;;;;;27.70;33.42;99802.16;12181552;19;20018;-80
2022/05/10 15:47:22;;;;;;;5.60;3.90;;;;;;;27.63;32.89;99803.97;12210133;19;20005;-80
2022/05/10 15:51:34;;;;;;;7.18;3.67;;;;;;;27.57;31.60;99794.13;12206768;19;20038;-81
2022/05/10 15:56:06;;;;;;;6.90;4.00;;;;;;;27.45;31.66;99781.69;12177419;19;20009;-81
2022/05/10 16:00:09;;;;;;;;;;;;;;;27.17;31.67;99783.78;12214089;19;20070;-81
2022/05/10 16:04:20;;;;;;;7.20;4.18;;;;;;;27.13;32.27;99786.47;12176956;19;20010;-80
2022/05/10 16:08:38;;;;;;;;;;;;;;;;;;;;;
2022/05/10 16:12:44;;;;;;;4.57;3.70;;;;;;;27.01;32.37;99784.53;12201575;19;20003;-81
2022/05/10 16:16:48;;;;;;;6.32;4.18;;;;;;;26.96;32.56;99779.13;12189564;19;20039;-81
2022/05/10 16:20:54;;;;;;;4.85;3.72;;;;;;;26.87;32.65;99786.13;12203558;19;20018;-80
2022/05/10 16:30:47;;;;;;;8.68;4.32;;;;;;;26.45;33.55;99781.66;12197558;19;20006;-81
2022/05/10 16:34:49;;;;;;;5.82;4.28;;;;;;;26.33;33.74;99785.34;12181684;19;20711;-80
2022/05/10 16:39:04;;;;;;;6.88;4.50;;;;;;;26.25;33.71;99779.81;12208215;19;20579;-81
2022/05/10 16:43:06;;;;;;;7.20;4.10;;;;;;;26.28;34.42;99776.28;12177188;19;20038;-81
2022/05/10 16:47:11;;;;;;;6.50;4.38;;;;;;;26.12;34.20;99776.22;12211208;19;20335;-81
2022/05/10 16:51:14;;;;;;;6.70;4.13;;;;;;;25.90;34.98;99775.50;12203465;19;20014;-80
2022/05/10 16:55:17;;;;;;;7.47;4.60;;;;;;;25.73;35.33;99767.28;12182916;19;20019;-80
2022/05/10 16:59:20;;;;;;;7.28;4.57;;;;;;;25.61;35.02;99765.25;12206753;19;19999;-81
2022/05/10 17:03:30;;;;;;;6.25;4.00;;;;;;;25.53;35.53;99768.19;12202856;19;20003;-81
2022/05/10 17:07:31;;;;;;;6.27;4.23;;;;;;;25.47;36.02;99773.25;12185367;19;20089;-81
2022/05/10 17:11:34;;;;;;;6.67;4.10;;;;;;;25.41;35.93;99760.53;12207274;19;20002;-81
2022/05/10 17:15:38;;;;;;;9.05;4.35;;;;;;;25.37;36.28;99760.44;12208975;19;20007;-81
2022/05/10 17:19:40;;;;;;;7.55;4.47;;;;;;;25.24;36.52;99768.03;12180516;19;20015;-80
2022/05/10 17:23:43;;;;;;;7.38;4.53;;;;;;;25.09;37.00;99760.22;12199066;19;20024;-81
2022/05/10 17:32:06;;;;;;;5.43;4.20;;;;;;;24.90;37.78;99746.66;12188361;19;20500;-81
2022/05/10 17:36:14;;;;;;;7.20;4.40;;;;;;;24.81;38.06;99751.56;12210381;19;20034;-81
2022/05/10 17:40:17;;;;;;;5.80;4.40;;;;;;;24.69;38.79;99748.66;12191609;19;20026;-81
2022/05/10 17:44:21;;;;;;;6.55;4.63;;;;;;;24.59;38.78;99751.94;12209475;19;20018;-80
2022/05/10 17:48:25;;;;;;;10.63;5.13;;;;;;;24.49;39.33;99756.81;12218567;19;20026;-80
2022/05/10 17:52:27;;;;;;;7.68;4.72;;;;;;;24.34;40.21;99757.41;12188245;19;20292;-80
2022/05/10 17:56:29;;;;;;;6.90;4.80;;;;;;;24.18;40.70;99754.38;12211169;19;20011;-81
2022/05/10 18:00:31;;;;;;;6.75;4.63;;;;;;;24.02;41.73;99751.34;12216803;19;20259;-80
2022/05/10 18:04:33;;;;;;;6.37;4.83;;;;;;;23.90;42.64;99753.25;12179378;19;20023;-80
2022/05/10 18:08:37;;;;;;;6.55;4.65;;;;;;;23.85;42.42;99759.88;12201486;19;20014;-81
2022/05/10 18:12:38;;;;;;;5.53;4.40;;;;;;;23.78;42.97;99748.34;12200333;19;20003;-81
2022/05/10 18:16:41;;;;;;;6.30;4.43;;;;;;;23.64;43.90;99757.81;12180898;19;20619;-80
2022/05/10 18:20:44;;;;;;;13.73;4.82;;;;;;;23.44;44.22;99764.22;12208087;19;20028;-80
2022/05/10 18:24:46;;;;;;;10.25;4.57;;;;;;;23.31;43.92;99756.81;12200659;19;20026;-83
2022/05/10 18:28:47;;;;;;;7.10;5.20;;;;;;;23.26;43.92;99763.47;12183070;19;20011;-86
2022/05/10 18:32:49;;;;;;;8.67;4.87;;;;;;;23.19;43.82;99763.13;12217051;19;20011;-81
2022/05/10 18:36:51;;;;;;;7.17;4.20;;;;;;;23.03;44.69;99754.44;12219684;19;20417;-82
2022/05/10 18:40:52;;;;;;;8.27;5.13;;;;;;;22.83;45.06;99763.53;12199808;19;20030;-81
2022/05/10 18:44:55;;;;;;;5.82;4.07;;;;;;;22.57;45.11;99763.56;12222662;19;20078;-82
2022/05/10 18:48:57;;;;;;;5.50;4.20;;;;;;;22.35;45.46;99761.75;12195727;19;20014;-82
2022/05/10 18:52:59;;;;;;;7.63;4.80;;;;;;;22.13;45.98;99760.72;12227032;19;20014;-82
2022/05/10 18:57:01;;;;;;;9.53;4.73;;;;;;;21.90;46.37;99762.81;12222225;19;20062;-82
2022/05/10 19:01:03;;;;;;;6.55;4.55;;;;;;;21.68;46.94;99766.53;12193165;19;20493;-82
2022/05/10 19:05:05;;;;;;;7.25;4.30;;;;;;;21.50;47.30;99764.81;12221589;19;20011;-82
2022/05/10 19:09:07;;;;;;;5.85;4.05;;;;;;;21.30;47.67;99755.00;12213211;19;20023;-81
2022/05/10 19:13:09;;;;;;;9.80;4.47;;;;;;;21.14;48.04;99771.38;12188886;19;20066;-81
2022/05/10 19:17:10;;;;;;;6.25;4.30;;;;;;;20.95;48.79;99768.81;12221023;19;20077;-84
2022/05/10 19:21:13;;;;;;;5.00;4.13;;;;;;;20.76;49.57;99771.81;12208320;19;20010;-83
2022/05/10 19:25:19;;;;;;;8.55;4.57;;;;;;;20.56;50.43;99772.34;12204239;19;20521;-83
2022/05/10 19:29:21;;;;;;;6.15;5.50;;;;;;;20.38;51.14;99774.97;12212287;19;20573;-84
2022/05/10 19:33:25;;;;;;;8.70;4.47;;;;;;;20.20;51.52;99776.78;12211201;19;20034;-84
2022/05/10 19:37:26;;;;;;;6.03;4.85;;;;;;;20.04;52.21;99781.03;12189774;19;20094;-83